createdAt,value
2022-10-22T00:01:57.272Z,5.45
2022-10-22T00:04:23.801Z,5.70
2022-10-22T00:06:50.270Z,5.35
2022-10-22T00:09:17.346Z,4.97
2022-10-22T00:11:43.966Z,4.38
2022-10-22T00:14:11.673Z,4.05
2022-10-22T00:16:38.244Z,5.63
2022-10-22T00:19:04.717Z,5.70
2022-10-22T00:21:31.216Z,5.50
2022-10-22T00:23:57.740Z,4.72
2022-10-22T00:26:24.304Z,3.92
2022-10-22T00:28:50.767Z,3.53
2022-10-22T00:31:17.319Z,2.65
2022-10-22T00:33:46.864Z,2.20
2022-10-22T00:36:15.160Z,1.73
2022-10-22T00:38:42.105Z,1.98
2022-10-22T00:41:09.002Z,1.50
2022-10-22T00:43:54.000Z,1.50
2022-10-22T00:46:20.482Z,1.55
2022-10-22T00:48:47.022Z,1.50
2022-10-22T00:51:14.525Z,1.52
2022-10-22T00:53:47.695Z,1.67
2022-10-22T00:56:14.388Z,1.80
2022-10-22T00:58:47.823Z,1.60
2022-10-22T01:01:18.284Z,1.50
2022-10-22T01:03:44.809Z,1.48
2022-10-22T01:06:19.147Z,1.40
2022-10-22T01:08:48.356Z,2.03
2022-10-22T01:11:34.884Z,2.28
2022-10-22T01:14:13.197Z,2.03
2022-10-22T01:16:59.756Z,1.80
2022-10-22T01:19:45.169Z,2.10
2022-10-22T01:22:20.916Z,1.27
2022-10-22T01:25:05.443Z,1.30
2022-10-22T01:27:52.839Z,1.50
2022-10-22T01:30:20.374Z,1.17
2022-10-22T01:32:51.230Z,1.20
2022-10-22T01:35:23.091Z,1.25
2022-10-22T01:37:54.140Z,1.30
2022-10-22T01:40:23.019Z,1.58
2022-10-22T01:43:15.592Z,1.55
2022-10-22T01:45:47.141Z,1.63
2022-10-22T01:48:38.989Z,1.20
2022-10-22T01:51:19.359Z,1.80
2022-10-22T01:54:10.301Z,1.70
2022-10-22T01:56:45.846Z,1.70
2022-10-22T01:59:21.919Z,1.95
2022-10-22T02:01:54.361Z,1.90
2022-10-22T02:04:26.802Z,1.52
2022-10-22T02:06:57.543Z,1.98
2022-10-22T02:09:28.331Z,1.92
2022-10-22T02:11:57.123Z,1.60
2022-10-22T02:14:27.993Z,1.60
2022-10-22T02:16:57.385Z,2.25
2022-10-22T02:19:44.138Z,2.10
2022-10-22T02:22:10.949Z,2.05
2022-10-22T02:24:37.623Z,1.60
2022-10-22T02:27:26.016Z,1.30
2022-10-22T02:29:57.097Z,1.80
2022-10-22T02:32:28.375Z,1.50
2022-10-22T02:34:56.900Z,1.65
2022-10-22T02:37:25.658Z,1.60
2022-10-22T02:39:53.925Z,1.52
2022-10-22T02:42:20.413Z,1.90
2022-10-22T02:44:46.934Z,1.60
2022-10-22T02:47:13.459Z,1.70
2022-10-22T02:49:39.921Z,2.05
2022-10-22T02:52:06.379Z,2.45
2022-10-22T02:54:33.096Z,2.30
2022-10-22T02:56:59.545Z,1.98
2022-10-22T02:59:26.012Z,2.28
2022-10-22T03:01:52.599Z,1.80
2022-10-22T03:04:19.104Z,1.85
2022-10-22T03:06:45.559Z,2.10
2022-10-22T03:09:12.143Z,1.70
2022-10-22T03:11:38.621Z,2.38
2022-10-22T03:14:05.092Z,1.85
2022-10-22T03:16:31.816Z,2.20
2022-10-22T03:18:58.331Z,2.10
2022-10-22T03:21:37.007Z,2.75
2022-10-22T03:24:10.322Z,2.58
2022-10-22T03:26:38.567Z,2.33
2022-10-22T03:29:05.587Z,2.13
2022-10-22T03:31:32.148Z,2.25
2022-10-22T03:33:58.649Z,2.00
2022-10-22T03:36:25.936Z,2.13
2022-10-22T03:38:52.447Z,1.52
2022-10-22T03:41:18.991Z,1.70
2022-10-22T03:43:45.725Z,1.55
2022-10-22T03:46:12.183Z,1.50
2022-10-22T03:48:38.642Z,1.48
2022-10-22T03:51:05.437Z,1.38
2022-10-22T03:53:31.899Z,1.35
2022-10-22T03:55:58.359Z,1.10
2022-10-22T03:58:24.955Z,1.45
2022-10-22T04:00:51.565Z,1.23
2022-10-22T04:03:18.071Z,1.23
2022-10-22T04:05:44.699Z,0.90
2022-10-22T04:08:11.174Z,1.20
2022-10-22T04:10:37.644Z,1.48
2022-10-22T04:13:04.226Z,1.27
2022-10-22T04:15:30.719Z,1.23
2022-10-22T04:17:57.293Z,0.77
2022-10-22T04:20:23.855Z,1.88
2022-10-22T04:22:50.317Z,1.00
2022-10-22T04:25:16.812Z,1.10
2022-10-22T04:27:43.513Z,1.30
2022-10-22T04:30:10.522Z,1.27
2022-10-22T04:32:37.780Z,1.10
2022-10-22T04:35:04.953Z,1.10
2022-10-22T04:37:31.430Z,1.10
2022-10-22T04:39:58.328Z,1.30
2022-10-22T04:42:25.134Z,1.55
2022-10-22T04:44:51.598Z,1.50
2022-10-22T04:47:18.093Z,1.73
2022-10-22T04:49:44.686Z,1.65
2022-10-22T04:52:11.170Z,1.33
2022-10-22T04:54:37.631Z,1.35
2022-10-22T04:57:04.276Z,1.70
2022-10-22T04:59:30.748Z,1.83
2022-10-22T05:01:57.212Z,1.50
2022-10-22T05:04:23.857Z,1.50
2022-10-22T05:06:50.317Z,1.80
2022-10-22T05:09:19.215Z,1.77
2022-10-22T05:11:47.420Z,1.67
2022-10-22T05:14:16.718Z,2.50
2022-10-22T05:16:43.635Z,1.85
2022-10-22T05:19:16.463Z,1.58
2022-10-22T05:21:42.952Z,1.85
2022-10-22T05:24:09.416Z,2.05
2022-10-22T05:26:36.016Z,1.73
2022-10-22T05:29:02.565Z,1.55
2022-10-22T05:31:29.056Z,1.63
2022-10-22T05:33:55.923Z,1.75
2022-10-22T05:36:23.289Z,1.70
2022-10-22T05:38:50.287Z,1.73
2022-10-22T05:41:22.627Z,1.67
2022-10-22T05:43:49.493Z,2.20
2022-10-22T05:46:22.473Z,1.75
2022-10-22T05:48:51.802Z,1.60
2022-10-22T05:51:19.031Z,2.13
2022-10-22T05:53:46.014Z,1.95
2022-10-22T05:56:15.515Z,1.80
2022-10-22T05:58:43.621Z,1.92
2022-10-22T06:01:18.744Z,1.80
2022-10-22T06:03:46.767Z,2.38
2022-10-22T06:06:33.963Z,2.30
2022-10-22T06:09:31.592Z,2.50
2022-10-22T06:11:58.631Z,2.20
2022-10-22T06:14:26.809Z,2.40
2022-10-22T06:16:54.129Z,2.10
2022-10-22T06:19:22.373Z,3.00
2022-10-22T06:21:49.164Z,3.03
2022-10-22T06:24:16.307Z,3.47
2022-10-22T06:26:43.136Z,5.60
2022-10-22T06:29:10.344Z,3.75
2022-10-22T06:31:36.926Z,3.83
2022-10-22T06:34:10.539Z,2.78
2022-10-22T06:36:38.207Z,2.55
2022-10-22T06:39:05.530Z,2.65
2022-10-22T06:41:32.078Z,2.60
2022-10-22T06:43:58.578Z,2.20
2022-10-22T06:46:26.137Z,3.58
2022-10-22T06:49:14.106Z,3.75
2022-10-22T06:51:40.997Z,3.63
2022-10-22T06:54:08.117Z,3.25
2022-10-22T06:56:34.996Z,2.90
2022-10-22T06:59:01.490Z,3.40
2022-10-22T07:01:31.840Z,2.95
2022-10-22T07:03:58.784Z,2.75
2022-10-22T07:06:26.681Z,3.10
2022-10-22T07:08:54.741Z,3.42
2022-10-22T07:11:25.460Z,2.42
2022-10-22T07:13:54.716Z,3.17
2022-10-22T07:16:21.313Z,3.20
2022-10-22T07:18:48.627Z,3.15
2022-10-22T07:21:17.508Z,3.10
2022-10-22T07:23:44.698Z,2.80
2022-10-22T07:26:14.504Z,3.28
2022-10-22T07:28:41.274Z,2.90
2022-10-22T07:31:09.630Z,2.50
2022-10-22T07:33:36.812Z,2.90
2022-10-22T07:36:06.044Z,3.75
2022-10-22T07:38:33.131Z,3.40
2022-10-22T07:41:00.081Z,3.20
2022-10-22T07:43:27.004Z,3.75
2022-10-22T07:45:53.501Z,3.22
2022-10-22T07:48:20.017Z,2.90
2022-10-22T07:50:46.496Z,2.95
2022-10-22T07:53:12.959Z,2.35
2022-10-22T07:55:39.489Z,3.47
2022-10-22T07:58:05.964Z,3.47
2022-10-22T08:00:32.475Z,3.00
2022-10-22T08:02:59.054Z,3.15
2022-10-22T08:05:25.607Z,3.42
2022-10-22T08:07:52.096Z,4.47
2022-10-22T08:10:18.834Z,2.80
2022-10-22T08:12:45.317Z,3.20
2022-10-22T08:15:11.809Z,3.03
2022-10-22T08:17:38.781Z,3.22
2022-10-22T08:20:06.134Z,3.20
2022-10-22T08:22:32.596Z,3.58
2022-10-22T08:24:59.094Z,3.15
2022-10-22T08:27:25.721Z,2.90
2022-10-22T08:29:52.216Z,3.63
2022-10-22T08:32:18.782Z,3.97
2022-10-22T08:34:46.910Z,4.45
2022-10-22T08:37:13.387Z,5.13
2022-10-22T08:39:40.756Z,4.80
2022-10-22T08:42:38.139Z,3.83
2022-10-22T08:45:16.880Z,4.25
2022-10-22T08:47:49.329Z,3.88
2022-10-22T08:50:39.802Z,4.25
2022-10-22T08:53:16.450Z,4.00
2022-10-22T08:55:43.885Z,3.30
2022-10-22T08:58:22.886Z,3.60
2022-10-22T09:01:11.220Z,4.00
2022-10-22T09:03:37.639Z,3.47
2022-10-22T09:06:20.380Z,3.28
2022-10-22T09:08:48.016Z,3.45
2022-10-22T09:11:36.578Z,3.47
2022-10-22T09:14:04.334Z,3.38
2022-10-22T09:16:39.107Z,2.90
2022-10-22T09:19:27.335Z,2.60
2022-10-22T09:22:03.816Z,2.47
2022-10-22T09:24:42.055Z,2.92
2022-10-22T09:27:18.367Z,2.70
2022-10-22T09:29:46.979Z,3.72
2022-10-22T09:32:14.612Z,3.28
2022-10-22T09:34:43.642Z,2.90
2022-10-22T09:37:11.014Z,2.97
2022-10-22T09:39:40.332Z,3.83
2022-10-22T09:42:07.848Z,2.60
2022-10-22T09:44:35.801Z,3.05
2022-10-22T09:47:43.339Z,3.05
2022-10-22T09:50:22.633Z,3.10
2022-10-22T09:53:35.229Z,2.80
2022-10-22T09:56:09.148Z,2.50
2022-10-22T09:58:47.296Z,3.25
2022-10-22T10:01:21.970Z,3.97
2022-10-22T10:03:49.521Z,3.67
2022-10-22T10:06:23.616Z,3.92
2022-10-22T10:08:50.532Z,3.75
2022-10-22T10:11:29.656Z,2.70
2022-10-22T10:14:14.023Z,2.35
2022-10-22T10:17:00.833Z,3.60
2022-10-22T10:20:00.042Z,4.30
2022-10-22T10:22:52.953Z,3.88
2022-10-22T10:25:41.298Z,4.30
2022-10-22T10:28:19.889Z,3.80
2022-10-22T10:30:59.420Z,3.65
2022-10-22T10:33:55.227Z,4.25
2022-10-22T10:36:37.467Z,4.32
2022-10-22T10:39:03.998Z,4.78
2022-10-22T10:41:51.731Z,3.90
2022-10-22T10:44:27.407Z,2.60
2022-10-22T10:47:19.185Z,3.10
2022-10-22T10:49:46.513Z,4.22
2022-10-22T10:52:48.440Z,3.80
2022-10-22T10:55:32.403Z,3.42
2022-10-22T10:58:12.381Z,3.40
2022-10-22T11:00:53.439Z,3.92
2022-10-22T11:03:52.571Z,3.63
2022-10-22T11:06:24.566Z,3.38
2022-10-22T11:08:59.306Z,3.30
2022-10-22T11:11:39.726Z,2.92
2022-10-22T11:14:29.962Z,11.48
2022-10-22T11:17:04.493Z,2.67
2022-10-22T11:19:59.975Z,3.15
2022-10-22T11:23:00.251Z,3.40
2022-10-22T11:25:47.530Z,3.00
2022-10-22T11:28:32.647Z,2.58
2022-10-22T11:31:07.176Z,5.13
2022-10-22T11:33:57.321Z,2.70
2022-10-22T11:39:04.679Z,3.25
2022-10-22T11:41:34.318Z,3.97
2022-10-22T11:44:22.719Z,3.33
2022-10-22T11:47:15.492Z,2.90
2022-10-22T11:49:57.667Z,2.25
2022-10-22T11:52:33.214Z,5.40
2022-10-22T11:55:03.545Z,6.53
2022-10-22T11:57:37.462Z,3.50
2022-10-22T12:00:40.564Z,2.88
2022-10-22T12:03:23.421Z,3.47
2022-10-22T12:06:16.258Z,3.63
2022-10-22T12:08:49.938Z,8.57
2022-10-22T12:11:19.277Z,6.80
2022-10-22T12:14:16.444Z,5.18
2022-10-22T12:17:10.287Z,3.30
2022-10-22T12:19:48.741Z,3.70
2022-10-22T12:22:21.168Z,2.10
2022-10-22T12:24:50.057Z,3.63
2022-10-22T12:27:23.488Z,12.07
2022-10-22T12:30:00.143Z,67.95
2022-10-22T12:32:36.094Z,27.83
2022-10-22T12:35:18.103Z,27.13
2022-10-22T12:37:45.346Z,11.77
2022-10-22T12:40:27.024Z,10.00
2022-10-22T12:42:59.699Z,10.80
2022-10-22T12:45:28.766Z,4.18
2022-10-22T12:48:01.168Z,6.05
2022-10-22T12:50:52.846Z,5.18
2022-10-22T12:53:43.375Z,5.25
2022-10-22T12:56:16.246Z,6.57
2022-10-22T12:58:49.111Z,6.45
2022-10-22T13:01:17.876Z,8.20
2022-10-22T13:03:48.649Z,7.13
2022-10-22T13:06:25.997Z,7.75
2022-10-22T13:09:22.575Z,9.52
2022-10-22T13:12:02.712Z,6.85
2022-10-22T13:14:31.796Z,8.13
2022-10-22T13:17:17.146Z,4.70
2022-10-22T13:19:43.569Z,7.70
2022-10-22T13:22:30.816Z,10.68
2022-10-22T13:25:24.860Z,9.07
2022-10-22T13:27:55.775Z,9.77
2022-10-22T13:30:26.265Z,11.05
2022-10-22T13:32:56.326Z,16.38
2022-10-22T13:35:29.830Z,15.93
2022-10-22T13:37:56.305Z,13.35
2022-10-22T13:40:22.903Z,25.77
2022-10-22T13:42:49.393Z,13.30
2022-10-22T13:45:16.574Z,7.68
2022-10-22T13:47:48.311Z,9.90
2022-10-22T13:50:17.544Z,10.07
2022-10-22T13:52:47.393Z,11.13
2022-10-22T13:55:23.871Z,4.60
2022-10-22T13:57:50.326Z,7.43
2022-10-22T14:00:19.585Z,10.50
2022-10-22T14:02:48.034Z,8.40
2022-10-22T14:05:16.789Z,10.52
2022-10-22T14:07:44.156Z,12.43
2022-10-22T14:10:22.532Z,19.25
2022-10-22T14:12:52.558Z,14.95
2022-10-22T14:15:25.575Z,12.48
2022-10-22T14:17:56.944Z,10.52
2022-10-22T14:20:27.702Z,14.15
2022-10-22T14:22:54.175Z,14.30
2022-10-22T14:25:23.465Z,10.18
2022-10-22T14:27:50.056Z,10.23
2022-10-22T14:30:19.901Z,19.88
2022-10-22T14:32:46.936Z,30.75
2022-10-22T14:35:15.871Z,16.40
2022-10-22T14:37:42.341Z,26.90
2022-10-22T14:40:12.377Z,20.20
2022-10-22T14:42:47.535Z,8.48
2022-10-22T14:45:23.963Z,17.80
2022-10-22T14:47:51.655Z,6.45
2022-10-22T14:50:19.165Z,8.32
2022-10-22T14:52:45.745Z,7.38
2022-10-22T14:55:14.336Z,9.25
2022-10-22T14:57:41.457Z,5.53
2022-10-22T15:00:14.432Z,9.85
2022-10-22T15:02:41.295Z,14.90
2022-10-22T15:05:08.303Z,7.03
2022-10-22T15:07:35.656Z,11.73
2022-10-22T15:10:02.276Z,4.05
2022-10-22T15:12:28.785Z,5.22
2022-10-22T15:14:55.257Z,11.07
2022-10-22T15:17:21.848Z,6.22
2022-10-22T15:19:48.325Z,12.77
2022-10-22T15:22:15.348Z,7.00
2022-10-22T15:24:45.036Z,7.80
2022-10-22T15:27:12.225Z,9.02
2022-10-22T15:29:38.765Z,6.45
2022-10-22T15:32:05.720Z,9.95
2022-10-22T15:34:34.332Z,7.30
2022-10-22T15:37:04.124Z,7.78
2022-10-22T15:39:31.564Z,4.57
2022-10-22T15:41:58.497Z,8.13
2022-10-22T15:44:28.241Z,6.47
2022-10-22T15:46:55.589Z,5.45
2022-10-22T15:49:23.662Z,7.20
2022-10-22T15:51:50.312Z,8.90
2022-10-22T15:54:19.962Z,4.82
2022-10-22T15:56:46.979Z,9.25
2022-10-22T15:59:15.400Z,6.88
2022-10-22T16:01:42.776Z,5.20
2022-10-22T16:04:10.236Z,7.35
2022-10-22T16:06:39.976Z,6.78
2022-10-22T16:09:12.134Z,6.03
2022-10-22T16:11:39.603Z,7.00
2022-10-22T16:14:07.224Z,7.78
2022-10-22T16:16:36.573Z,7.85
2022-10-22T16:19:03.217Z,8.90
2022-10-22T16:21:29.717Z,8.50
2022-10-22T16:23:56.296Z,6.40
2022-10-22T16:26:22.768Z,6.60
2022-10-22T16:28:49.251Z,7.32
2022-10-22T16:31:17.942Z,7.00
2022-10-22T16:33:47.817Z,6.35
2022-10-22T16:36:18.516Z,10.70
2022-10-22T16:38:45.835Z,7.82
2022-10-22T16:41:23.146Z,6.65
2022-10-22T16:43:51.678Z,7.70
2022-10-22T16:46:20.538Z,7.47
2022-10-22T16:48:51.301Z,5.72
2022-10-22T16:51:20.933Z,6.28
2022-10-22T16:53:47.675Z,7.70
2022-10-22T16:56:16.085Z,9.48
2022-10-22T16:58:51.767Z,8.23
2022-10-22T17:01:20.283Z,8.50
2022-10-22T17:03:46.992Z,9.18
2022-10-22T17:06:14.114Z,6.97
2022-10-22T17:08:41.789Z,7.45
2022-10-22T17:11:17.062Z,8.70
2022-10-22T17:13:46.307Z,7.70
2022-10-22T17:16:15.294Z,7.25
2022-10-22T17:18:42.920Z,6.63
2022-10-22T17:21:11.119Z,7.45
2022-10-22T17:23:37.675Z,8.68
2022-10-22T17:26:06.726Z,10.05
2022-10-22T17:28:33.884Z,7.63
2022-10-22T17:31:04.168Z,7.78
2022-10-22T17:33:30.786Z,8.25
2022-10-22T17:35:57.677Z,9.10
2022-10-22T17:38:24.170Z,8.10
2022-10-22T17:40:50.763Z,7.95
2022-10-22T17:43:17.364Z,10.88
2022-10-22T17:45:43.827Z,6.85
2022-10-22T17:48:10.322Z,8.57
2022-10-22T17:50:41.293Z,6.85
2022-10-22T17:53:08.016Z,6.03
2022-10-22T17:55:34.486Z,7.88
2022-10-22T17:58:02.111Z,8.35
2022-10-22T18:00:29.249Z,8.30
2022-10-22T18:02:55.693Z,9.70
2022-10-22T18:05:24.112Z,8.50
2022-10-22T18:07:54.766Z,9.80
2022-10-22T18:10:21.273Z,9.77
2022-10-22T18:12:47.844Z,9.63
2022-10-22T18:15:14.375Z,9.43
2022-10-22T18:17:41.119Z,7.80
2022-10-22T18:20:08.575Z,6.47
2022-10-22T18:22:36.113Z,7.75
2022-10-22T18:25:02.635Z,6.72
2022-10-22T18:27:29.263Z,5.90
2022-10-22T18:29:55.724Z,7.35
2022-10-22T18:32:22.617Z,7.60
2022-10-22T18:34:49.192Z,8.57
2022-10-22T18:37:15.722Z,6.15
2022-10-22T18:39:42.185Z,8.68
2022-10-22T18:42:08.785Z,8.95
2022-10-22T18:44:35.876Z,9.18
2022-10-22T18:47:02.365Z,8.13
2022-10-22T18:49:29.049Z,7.30
2022-10-22T18:51:55.582Z,6.90
2022-10-22T18:54:23.903Z,6.68
2022-10-22T18:56:51.691Z,6.38
2022-10-22T18:59:24.019Z,7.85
2022-10-22T19:01:53.157Z,6.15
2022-10-22T19:04:19.794Z,6.00
2022-10-22T19:06:46.444Z,6.60
2022-10-22T19:09:14.875Z,8.80
2022-10-22T19:11:42.935Z,7.50
2022-10-22T19:14:09.451Z,8.25
2022-10-22T19:16:36.155Z,6.38
2022-10-22T19:19:04.953Z,6.63
2022-10-22T19:21:31.546Z,5.78
2022-10-22T19:23:59.640Z,4.28
2022-10-22T19:26:27.309Z,5.82
2022-10-22T19:28:54.906Z,7.60
2022-10-22T19:31:23.997Z,6.47
2022-10-22T19:33:53.887Z,7.63
2022-10-22T19:36:20.913Z,6.80
2022-10-22T19:38:48.971Z,6.45
2022-10-22T19:41:18.763Z,6.45
2022-10-22T19:43:48.206Z,6.40
2022-10-22T19:46:14.804Z,4.30
2022-10-22T19:48:41.353Z,5.30
2022-10-22T19:51:10.973Z,5.28
2022-10-22T19:53:38.700Z,5.97
2022-10-22T19:56:07.369Z,6.40
2022-10-22T19:58:34.666Z,5.90
2022-10-22T20:01:10.055Z,6.45
2022-10-22T20:03:38.366Z,5.38
2022-10-22T20:06:07.465Z,3.63
2022-10-22T20:08:36.025Z,6.28
2022-10-22T20:11:02.760Z,2.78
2022-10-22T20:13:29.500Z,4.63
2022-10-22T20:15:56.777Z,7.35
2022-10-22T20:18:23.328Z,7.60
2022-10-22T20:20:50.590Z,8.93
2022-10-22T20:23:17.351Z,4.85
2022-10-22T20:25:46.227Z,3.83
2022-10-22T20:28:16.080Z,4.43
2022-10-22T20:30:44.256Z,5.55
2022-10-22T20:33:11.308Z,7.63
2022-10-22T20:35:38.279Z,4.30
2022-10-22T20:38:06.941Z,4.93
2022-10-22T20:40:33.938Z,7.45
2022-10-22T20:43:01.190Z,7.50
2022-10-22T20:45:28.161Z,4.72
2022-10-22T20:48:02.135Z,6.97
2022-10-22T20:50:30.221Z,5.50
2022-10-22T20:52:56.760Z,5.97
2022-10-22T20:55:23.480Z,3.45
2022-10-22T20:57:50.072Z,6.07
2022-10-22T21:00:16.714Z,5.88
2022-10-22T21:02:43.271Z,5.35
2022-10-22T21:05:09.831Z,5.25
2022-10-22T21:07:36.327Z,6.95
2022-10-22T21:10:03.940Z,7.22
2022-10-22T21:12:30.509Z,6.95
2022-10-22T21:14:57.031Z,4.38
2022-10-22T21:17:23.497Z,5.93
2022-10-22T21:19:50.015Z,3.60
2022-10-22T21:22:16.465Z,6.40
2022-10-22T21:24:42.920Z,5.68
2022-10-22T21:27:09.492Z,5.75
2022-10-22T21:29:35.969Z,6.47
2022-10-22T21:32:02.436Z,6.43
2022-10-22T21:34:29.300Z,6.43
2022-10-22T21:36:55.868Z,6.07
2022-10-22T21:39:22.326Z,5.57
2022-10-22T21:41:48.927Z,7.55
2022-10-22T21:44:15.532Z,5.07
2022-10-22T21:46:42.004Z,5.30
2022-10-22T21:49:09.643Z,7.30
2022-10-22T21:51:36.189Z,4.97
2022-10-22T21:54:02.734Z,3.45
2022-10-22T21:56:31.914Z,6.07
2022-10-22T21:58:58.758Z,4.43
2022-10-22T22:01:25.570Z,6.25
2022-10-22T22:03:52.855Z,5.18
2022-10-22T22:06:22.347Z,5.55
2022-10-22T22:08:51.195Z,5.03
2022-10-22T22:11:20.769Z,4.50
2022-10-22T22:13:47.603Z,5.90
2022-10-22T22:16:17.209Z,5.90
2022-10-22T22:18:44.148Z,5.27
2022-10-22T22:21:13.622Z,5.82
2022-10-22T22:23:42.938Z,5.78
2022-10-22T22:26:10.548Z,4.45
2022-10-22T22:28:37.399Z,5.93
2022-10-22T22:31:16.265Z,6.13
2022-10-22T22:33:43.639Z,5.57
2022-10-22T22:36:10.569Z,4.65
2022-10-22T22:38:37.923Z,6.30
2022-10-22T22:41:05.367Z,4.78
2022-10-22T22:43:32.140Z,4.93
2022-10-22T22:46:04.417Z,3.58
2022-10-22T22:48:31.784Z,5.05
2022-10-22T22:50:58.388Z,3.42
2022-10-22T22:53:24.919Z,5.03
2022-10-22T22:55:51.411Z,5.68
2022-10-22T22:58:17.863Z,5.03
2022-10-22T23:00:44.400Z,4.18
2022-10-22T23:03:10.856Z,5.28
2022-10-22T23:05:37.765Z,4.18
2022-10-22T23:08:04.604Z,3.55
2022-10-22T23:10:31.096Z,5.53
2022-10-22T23:12:57.555Z,5.65
2022-10-22T23:15:24.130Z,4.85
2022-10-22T23:17:50.602Z,4.53
2022-10-22T23:20:17.065Z,4.82
2022-10-22T23:22:43.925Z,4.90
2022-10-22T23:25:10.535Z,5.53
2022-10-22T23:27:37.020Z,5.50
2022-10-22T23:30:03.893Z,5.65
2022-10-22T23:32:31.136Z,3.70
2022-10-22T23:34:57.741Z,5.70
2022-10-22T23:37:24.242Z,3.90
2022-10-22T23:39:51.113Z,4.95
2022-10-22T23:42:17.688Z,4.47
2022-10-22T23:44:44.195Z,4.95
2022-10-22T23:47:10.693Z,5.63
2022-10-22T23:49:37.224Z,3.92
2022-10-22T23:52:03.823Z,5.03
2022-10-22T23:54:30.311Z,5.15
2022-10-22T23:56:56.752Z,4.72
2022-10-22T23:59:23.286Z,4.03
